sensor_id;sensor_type;location;lat;lon;timestamp;pressure;altitude;pressure_sealevel;temperature;humidity
50302;BME280;36550;50.472;19.744;2023-02-20T00:01:08;98538.14;;;-0.23;83.95
50302;BME280;36550;50.472;19.744;2023-02-20T00:04:51;98540.73;;;-0.20;84.02
50302;BME280;36550;50.472;19.744;2023-02-20T00:08:00;98537.33;;;-0.18;84.10
50302;BME280;36550;50.472;19.744;2023-02-20T00:11:24;98542.45;;;-0.14;84.13
50302;BME280;36550;50.472;19.744;2023-02-20T00:15:09;98541.57;;;-0.09;83.99
50302;BME280;36550;50.472;19.744;2023-02-20T00:18:05;98540.66;;;-0.05;83.95
50302;BME280;36550;50.472;19.744;2023-02-20T00:21:30;98535.77;;;-0.03;83.87
50302;BME280;36550;50.472;19.744;2023-02-20T00:24:56;98540.85;;;-0.02;83.92
50302;BME280;36550;50.472;19.744;2023-02-20T00:27:44;98537.09;;;-0.02;83.78
50302;BME280;36550;50.472;19.744;2023-02-20T00:30:29;98534.25;;;0.01;83.81
50302;BME280;36550;50.472;19.744;2023-02-20T00:33:54;98533.23;;;0.04;83.68
50302;BME280;36550;50.472;19.744;2023-02-20T00:37:38;98518.66;;;0.07;83.57
50302;BME280;36550;50.472;19.744;2023-02-20T00:40:23;98514.52;;;0.07;83.69
50302;BME280;36550;50.472;19.744;2023-02-20T00:43:48;98523.05;;;0.08;83.65
50302;BME280;36550;50.472;19.744;2023-02-20T00:46:55;98519.75;;;0.06;83.58
50302;BME280;36550;50.472;19.744;2023-02-20T00:50:19;98516.46;;;0.06;83.53
50302;BME280;36550;50.472;19.744;2023-02-20T00:53:24;98513.93;;;0.09;83.54
50302;BME280;36550;50.472;19.744;2023-02-20T00:56:54;98522.70;;;0.11;83.41
50302;BME280;36550;50.472;19.744;2023-02-20T01:00:04;98519.59;;;0.15;83.36
50302;BME280;36550;50.472;19.744;2023-02-20T01:02:49;98521.92;;;0.15;83.28
50302;BME280;36550;50.472;19.744;2023-02-20T01:06:13;98533.63;;;0.12;83.32
50302;BME280;36550;50.472;19.744;2023-02-20T01:09:37;98537.86;;;0.06;83.22
50302;BME280;36550;50.472;19.744;2023-02-20T01:13:15;98540.66;;;-0.04;83.22
50302;BME280;36550;50.472;19.744;2023-02-20T01:16:53;98535.61;;;-0.13;83.21
50302;BME280;36550;50.472;19.744;2023-02-20T01:20:19;98541.65;;;-0.22;83.24
50302;BME280;36550;50.472;19.744;2023-02-20T01:23:23;98538.90;;;-0.25;83.11
50302;BME280;36550;50.472;19.744;2023-02-20T01:26:07;98538.17;;;-0.29;83.20
50302;BME280;36550;50.472;19.744;2023-02-20T01:28:51;98537.26;;;-0.30;83.18
50302;BME280;36550;50.472;19.744;2023-02-20T01:31:35;98534.27;;;-0.31;83.26
50302;BME280;36550;50.472;19.744;2023-02-20T01:34:59;98530.95;;;-0.32;83.34
50302;BME280;36550;50.472;19.744;2023-02-20T01:38:24;98528.48;;;-0.33;83.45
50302;BME280;36550;50.472;19.744;2023-02-20T01:42:10;98527.45;;;-0.36;83.66
50302;BME280;36550;50.472;19.744;2023-02-20T01:45:33;98524.36;;;-0.37;83.78
50302;BME280;36550;50.472;19.744;2023-02-20T01:49:33;98522.42;;;-0.36;84.07
50302;BME280;36550;50.472;19.744;2023-02-20T01:52:55;98520.12;;;-0.32;84.04
50302;BME280;36550;50.472;19.744;2023-02-20T01:56:02;98511.27;;;-0.27;83.95
50302;BME280;36550;50.472;19.744;2023-02-20T01:59:16;98508.06;;;-0.22;83.83
50302;BME280;36550;50.472;19.744;2023-02-20T02:03:09;98506.57;;;-0.13;83.97
50302;BME280;36550;50.472;19.744;2023-02-20T02:06:14;98507.16;;;-0.09;83.92
50302;BME280;36550;50.472;19.744;2023-02-20T02:09:33;98504.92;;;-0.07;83.86
50302;BME280;36550;50.472;19.744;2023-02-20T02:12:30;98496.83;;;-0.05;83.84
50302;BME280;36550;50.472;19.744;2023-02-20T02:40:25;98461.34;;;0.13;83.32
50302;BME280;36550;50.472;19.744;2023-02-20T02:47:47;98473.10;;;0.13;83.22
50302;BME280;36550;50.472;19.744;2023-02-20T02:51:17;98483.26;;;0.18;83.06
50302;BME280;36550;50.472;19.744;2023-02-20T02:54:26;98482.36;;;0.22;83.00
50302;BME280;36550;50.472;19.744;2023-02-20T02:57:28;98480.17;;;0.23;82.97
50302;BME280;36550;50.472;19.744;2023-02-20T03:03:12;98471.81;;;0.21;82.98
50302;BME280;36550;50.472;19.744;2023-02-20T03:06:35;98456.83;;;0.17;82.93
50302;BME280;36550;50.472;19.744;2023-02-20T03:10:04;98436.77;;;0.12;82.87
50302;BME280;36550;50.472;19.744;2023-02-20T03:13:05;98429.56;;;0.07;82.78
50302;BME280;36550;50.472;19.744;2023-02-20T03:20:20;98436.08;;;-0.05;82.42
50302;BME280;36550;50.472;19.744;2023-02-20T03:23:45;98437.34;;;-0.11;82.38
50302;BME280;36550;50.472;19.744;2023-02-20T03:26:55;98432.55;;;-0.14;82.57
50302;BME280;36550;50.472;19.744;2023-02-20T03:30:44;98431.41;;;-0.20;82.75
50302;BME280;36550;50.472;19.744;2023-02-20T03:34:08;98428.05;;;-0.26;82.78
50302;BME280;36550;50.472;19.744;2023-02-20T03:37:44;98432.40;;;-0.33;82.79
50302;BME280;36550;50.472;19.744;2023-02-20T03:41:27;98434.77;;;-0.38;82.87
50302;BME280;36550;50.472;19.744;2023-02-20T03:44:46;98418.94;;;-0.41;82.85
50302;BME280;36550;50.472;19.744;2023-02-20T03:48:30;98419.30;;;-0.45;82.88
50302;BME280;36550;50.472;19.744;2023-02-20T03:51:40;98424.73;;;-0.48;82.91
50302;BME280;36550;50.472;19.744;2023-02-20T03:54:43;98422.73;;;-0.48;82.96
50302;BME280;36550;50.472;19.744;2023-02-20T03:57:49;98427.34;;;-0.47;83.16
50302;BME280;36550;50.472;19.744;2023-02-20T04:00:54;98439.23;;;-0.45;83.41
50302;BME280;36550;50.472;19.744;2023-02-20T04:04:22;98434.21;;;-0.45;83.44
50302;BME280;36550;50.472;19.744;2023-02-20T04:07:49;98438.79;;;-0.47;83.41
50302;BME280;36550;50.472;19.744;2023-02-20T04:11:46;98430.41;;;-0.53;83.34
50302;BME280;36550;50.472;19.744;2023-02-20T04:14:59;98419.80;;;-0.59;83.51
50302;BME280;36550;50.472;19.744;2023-02-20T04:18:08;98416.40;;;-0.59;83.46
50302;BME280;36550;50.472;19.744;2023-02-20T04:20:56;98409.92;;;-0.58;83.34
50302;BME280;36550;50.472;19.744;2023-02-20T04:27:18;98419.48;;;-0.54;83.48
50302;BME280;36550;50.472;19.744;2023-02-20T04:30:42;98416.90;;;-0.54;83.58
50302;BME280;36550;50.472;19.744;2023-02-20T04:34:06;98409.10;;;-0.53;83.48
50302;BME280;36550;50.472;19.744;2023-02-20T04:37:34;98396.59;;;-0.55;83.72
50302;BME280;36550;50.472;19.744;2023-02-20T04:40:58;98390.74;;;-0.57;83.72
50302;BME280;36550;50.472;19.744;2023-02-20T04:44:23;98393.49;;;-0.59;83.66
50302;BME280;36550;50.472;19.744;2023-02-20T04:47:41;98394.22;;;-0.59;83.71
50302;BME280;36550;50.472;19.744;2023-02-20T04:50:33;98396.77;;;-0.53;83.88
50302;BME280;36550;50.472;19.744;2023-02-20T04:53:51;98389.98;;;-0.48;83.80
50302;BME280;36550;50.472;19.744;2023-02-20T04:57:16;98385.29;;;-0.40;83.85
50302;BME280;36550;50.472;19.744;2023-02-20T05:00:54;98380.06;;;-0.33;83.77
50302;BME280;36550;50.472;19.744;2023-02-20T05:04:19;98372.13;;;-0.29;83.82
50302;BME280;36550;50.472;19.744;2023-02-20T05:07:11;98365.54;;;-0.28;83.75
50302;BME280;36550;50.472;19.744;2023-02-20T05:10:17;98358.21;;;-0.31;83.70
50302;BME280;36550;50.472;19.744;2023-02-20T05:13:51;98361.46;;;-0.34;83.64
50302;BME280;36550;50.472;19.744;2023-02-20T05:17:15;98362.41;;;-0.38;83.58
50302;BME280;36550;50.472;19.744;2023-02-20T05:20:28;98363.45;;;-0.44;83.60
50302;BME280;36550;50.472;19.744;2023-02-20T05:24:05;98370.25;;;-0.46;83.52
50302;BME280;36550;50.472;19.744;2023-02-20T05:27:28;98367.94;;;-0.42;83.49
50302;BME280;36550;50.472;19.744;2023-02-20T05:30:59;98366.61;;;-0.37;83.53
50302;BME280;36550;50.472;19.744;2023-02-20T05:33:48;98373.03;;;-0.33;83.49
50302;BME280;36550;50.472;19.744;2023-02-20T05:37:20;98373.48;;;-0.27;83.64
50302;BME280;36550;50.472;19.744;2023-02-20T05:40:28;98370.79;;;-0.21;83.67
50302;BME280;36550;50.472;19.744;2023-02-20T05:43:41;98364.17;;;-0.15;83.84
50302;BME280;36550;50.472;19.744;2023-02-20T05:46:45;98362.83;;;-0.10;83.96
50302;BME280;36550;50.472;19.744;2023-02-20T05:50:16;98363.34;;;-0.02;83.95
50302;BME280;36550;50.472;19.744;2023-02-20T05:53:00;98365.83;;;0.04;83.97
50302;BME280;36550;50.472;19.744;2023-02-20T05:55:44;98364.94;;;0.11;83.77
50302;BME280;36550;50.472;19.744;2023-02-20T05:58:50;98360.11;;;0.20;83.65
50302;BME280;36550;50.472;19.744;2023-02-20T06:01:57;98361.42;;;0.30;83.46
50302;BME280;36550;50.472;19.744;2023-02-20T06:05:02;98362.56;;;0.41;83.33
50302;BME280;36550;50.472;19.744;2023-02-20T06:08:45;98364.24;;;0.54;83.28
50302;BME280;36550;50.472;19.744;2023-02-20T06:11:50;98367.32;;;0.63;83.07
50302;BME280;36550;50.472;19.744;2023-02-20T06:15:09;98369.89;;;0.74;83.14
50302;BME280;36550;50.472;19.744;2023-02-20T06:18:53;98364.72;;;0.84;82.98
50302;BME280;36550;50.472;19.744;2023-02-20T06:22:36;98369.88;;;0.93;82.56
50302;BME280;36550;50.472;19.744;2023-02-20T06:25:56;98373.07;;;0.98;82.35
50302;BME280;36550;50.472;19.744;2023-02-20T06:29:21;98379.42;;;1.05;81.96
50302;BME280;36550;50.472;19.744;2023-02-20T06:32:20;98384.90;;;1.13;81.38
50302;BME280;36550;50.472;19.744;2023-02-20T06:35:44;98385.80;;;1.21;81.13
50302;BME280;36550;50.472;19.744;2023-02-20T06:38:49;98379.34;;;1.28;80.96
50302;BME280;36550;50.472;19.744;2023-02-20T06:41:54;98373.96;;;1.33;80.97
50302;BME280;36550;50.472;19.744;2023-02-20T06:45:17;98362.77;;;1.38;80.44
50302;BME280;36550;50.472;19.744;2023-02-20T06:48:50;98350.79;;;1.43;79.40
50302;BME280;36550;50.472;19.744;2023-02-20T06:51:57;98350.55;;;1.47;79.26
50302;BME280;36550;50.472;19.744;2023-02-20T06:55:22;98352.05;;;1.54;79.46
50302;BME280;36550;50.472;19.744;2023-02-20T06:58:53;98348.86;;;1.61;79.20
50302;BME280;36550;50.472;19.744;2023-02-20T07:01:58;98354.83;;;1.70;78.83
50302;BME280;36550;50.472;19.744;2023-02-20T07:05:21;98345.13;;;1.83;78.75
50302;BME280;36550;50.472;19.744;2023-02-20T07:08:46;98344.30;;;1.87;77.50
50302;BME280;36550;50.472;19.744;2023-02-20T07:11:38;98333.90;;;1.89;77.25
50302;BME280;36550;50.472;19.744;2023-02-20T07:14:45;98323.38;;;1.89;76.97
50302;BME280;36550;50.472;19.744;2023-02-20T07:17:51;98322.73;;;1.84;76.89
50302;BME280;36550;50.472;19.744;2023-02-20T07:20:58;98313.89;;;1.75;76.67
50302;BME280;36550;50.472;19.744;2023-02-20T07:24:24;98307.21;;;1.73;76.38
50302;BME280;36550;50.472;19.744;2023-02-20T07:28:02;98316.11;;;1.77;76.81
50302;BME280;36550;50.472;19.744;2023-02-20T07:31:20;98314.50;;;1.95;77.47
50302;BME280;36550;50.472;19.744;2023-02-20T07:34:23;98296.80;;;2.22;77.01
50302;BME280;36550;50.472;19.744;2023-02-20T07:37:34;98292.60;;;2.45;76.80
50302;BME280;36550;50.472;19.744;2023-02-20T07:41:18;98280.30;;;2.73;75.92
50302;BME280;36550;50.472;19.744;2023-02-20T07:44:22;98287.17;;;2.95;76.03
50302;BME280;36550;50.472;19.744;2023-02-20T07:47:46;98279.86;;;3.20;76.30
50302;BME280;36550;50.472;19.744;2023-02-20T07:50:37;98277.80;;;3.36;75.69
50302;BME280;36550;50.472;19.744;2023-02-20T07:53:51;98274.13;;;3.48;74.80
50302;BME280;36550;50.472;19.744;2023-02-20T07:57:16;98264.16;;;3.59;74.00
50302;BME280;36550;50.472;19.744;2023-02-20T08:00:39;98266.02;;;3.81;74.54
50302;BME280;36550;50.472;19.744;2023-02-20T08:03:49;98272.48;;;4.02;73.95
50302;BME280;36550;50.472;19.744;2023-02-20T08:06:54;98262.27;;;4.17;73.05
50302;BME280;36550;50.472;19.744;2023-02-20T08:10:17;98262.16;;;4.19;72.82
50302;BME280;36550;50.472;19.744;2023-02-20T08:13:21;98269.84;;;4.18;72.55
50302;BME280;36550;50.472;19.744;2023-02-20T08:16:26;98265.99;;;4.17;72.48
50302;BME280;36550;50.472;19.744;2023-02-20T08:19:25;98255.27;;;4.20;72.58
50302;BME280;36550;50.472;19.744;2023-02-20T08:22:12;98248.59;;;4.24;72.26
50302;BME280;36550;50.472;19.744;2023-02-20T08:25:37;98239.93;;;4.27;71.84
50302;BME280;36550;50.472;19.744;2023-02-20T08:28:47;98225.73;;;4.32;71.49
50302;BME280;36550;50.472;19.744;2023-02-20T08:31:32;98215.50;;;4.34;70.70
50302;BME280;36550;50.472;19.744;2023-02-20T08:34:56;98223.33;;;4.35;71.42
50302;BME280;36550;50.472;19.744;2023-02-20T08:38:04;98236.15;;;4.39;71.78
50302;BME280;36550;50.472;19.744;2023-02-20T08:41:26;98239.27;;;4.52;72.39
50302;BME280;36550;50.472;19.744;2023-02-20T08:44:31;98235.57;;;4.69;72.19
50302;BME280;36550;50.472;19.744;2023-02-20T08:47:38;98222.83;;;4.80;71.66
50302;BME280;36550;50.472;19.744;2023-02-20T08:50:58;98211.58;;;4.85;71.14
50302;BME280;36550;50.472;19.744;2023-02-20T08:54:30;98212.17;;;4.96;71.75
50302;BME280;36550;50.472;19.744;2023-02-20T08:57:57;98204.41;;;5.12;71.70
50302;BME280;36550;50.472;19.744;2023-02-20T09:00:50;98206.89;;;5.25;71.44
50302;BME280;36550;50.472;19.744;2023-02-20T09:03:54;98215.84;;;5.37;71.55
50302;BME280;36550;50.472;19.744;2023-02-20T09:07:00;98204.23;;;5.55;70.78
50302;BME280;36550;50.472;19.744;2023-02-20T09:09:43;98184.64;;;5.77;70.90
50302;BME280;36550;50.472;19.744;2023-02-20T09:12:27;98178.17;;;5.98;70.97
50302;BME280;36550;50.472;19.744;2023-02-20T09:15:12;98174.91;;;6.06;70.83
50302;BME280;36550;50.472;19.744;2023-02-20T09:18:00;98165.88;;;6.11;70.64
50302;BME280;36550;50.472;19.744;2023-02-20T09:20:48;98161.83;;;6.21;70.12
50302;BME280;36550;50.472;19.744;2023-02-20T09:23:56;98162.98;;;6.22;69.17
50302;BME280;36550;50.472;19.744;2023-02-20T09:26:48;98153.28;;;6.23;69.15
50302;BME280;36550;50.472;19.744;2023-02-20T09:29:31;98149.80;;;6.29;69.26
50302;BME280;36550;50.472;19.744;2023-02-20T09:32:36;98142.08;;;6.37;69.17
50302;BME280;36550;50.472;19.744;2023-02-20T09:35:26;98134.74;;;6.49;69.42
50302;BME280;36550;50.472;19.744;2023-02-20T09:38:53;98136.01;;;6.70;69.92
50302;BME280;36550;50.472;19.744;2023-02-20T09:49:10;98123.58;;;6.77;68.69
50302;BME280;36550;50.472;19.744;2023-02-20T09:52:14;98111.53;;;6.62;68.37
50302;BME280;36550;50.472;19.744;2023-02-20T09:55:33;98107.70;;;6.41;68.31
50302;BME280;36550;50.472;19.744;2023-02-20T09:58:56;98101.84;;;6.30;69.07
50302;BME280;36550;50.472;19.744;2023-02-20T10:05:21;98094.45;;;6.15;69.89
50302;BME280;36550;50.472;19.744;2023-02-20T10:08:22;98080.66;;;6.14;69.92
50302;BME280;36550;50.472;19.744;2023-02-20T10:17:41;98065.10;;;6.10;70.80
50302;BME280;36550;50.472;19.744;2023-02-20T10:20:57;98053.05;;;6.09;70.97
50302;BME280;36550;50.472;19.744;2023-02-20T10:34:17;98037.92;;;6.36;71.89
50302;BME280;36550;50.472;19.744;2023-02-20T10:37:27;98025.11;;;6.51;71.91
50302;BME280;36550;50.472;19.744;2023-02-20T10:43:20;98020.90;;;6.61;71.48
50302;BME280;36550;50.472;19.744;2023-02-20T10:46:45;98015.27;;;6.67;71.33
50302;BME280;36550;50.472;19.744;2023-02-20T10:50:02;97995.20;;;6.73;71.23
50302;BME280;36550;50.472;19.744;2023-02-20T10:52:53;97988.27;;;6.71;71.05
50302;BME280;36550;50.472;19.744;2023-02-20T10:56:46;97981.21;;;6.72;71.44
50302;BME280;36550;50.472;19.744;2023-02-20T10:59:38;97964.67;;;6.73;71.33
50302;BME280;36550;50.472;19.744;2023-02-20T11:02:31;97960.10;;;6.68;71.00
50302;BME280;36550;50.472;19.744;2023-02-20T11:05:48;97954.73;;;6.72;71.34
50302;BME280;36550;50.472;19.744;2023-02-20T11:08:34;97946.86;;;6.79;71.64
50302;BME280;36550;50.472;19.744;2023-02-20T11:12:00;97930.21;;;6.79;71.17
50302;BME280;36550;50.472;19.744;2023-02-20T11:15:25;97918.23;;;6.81;71.08
50302;BME280;36550;50.472;19.744;2023-02-20T11:18:34;97909.94;;;6.84;70.82
50302;BME280;36550;50.472;19.744;2023-02-20T11:21:42;97904.26;;;6.89;70.93
50302;BME280;36550;50.472;19.744;2023-02-20T11:24:48;97901.00;;;6.90;70.63
50302;BME280;36550;50.472;19.744;2023-02-20T11:27:33;97893.02;;;6.98;70.96
50302;BME280;36550;50.472;19.744;2023-02-20T11:30:33;97897.01;;;7.11;70.66
50302;BME280;36550;50.472;19.744;2023-02-20T11:33:25;97891.56;;;7.26;70.81
50302;BME280;36550;50.472;19.744;2023-02-20T11:37:03;97861.25;;;7.34;69.98
50302;BME280;36550;50.472;19.744;2023-02-20T11:39:58;97855.67;;;7.38;69.83
50302;BME280;36550;50.472;19.744;2023-02-20T11:42:44;97848.21;;;7.44;70.11
50302;BME280;36550;50.472;19.744;2023-02-20T11:51:46;97814.33;;;7.56;68.92
50302;BME280;36550;50.472;19.744;2023-02-20T11:55:28;97804.25;;;7.59;69.04
50302;BME280;36550;50.472;19.744;2023-02-20T11:58:22;97791.90;;;7.73;69.71
50302;BME280;36550;50.472;19.744;2023-02-20T12:01:33;97749.65;;;7.83;68.77
50302;BME280;36550;50.472;19.744;2023-02-20T12:04:23;97757.89;;;7.83;68.26
50302;BME280;36550;50.472;19.744;2023-02-20T12:13:10;97771.36;;;7.97;67.89
50302;BME280;36550;50.472;19.744;2023-02-20T12:16:22;97765.34;;;8.04;68.17
50302;BME280;36550;50.472;19.744;2023-02-20T12:19:27;97737.14;;;8.14;67.12
50302;BME280;36550;50.472;19.744;2023-02-20T12:29:04;97722.89;;;8.29;66.54
50302;BME280;36550;50.472;19.744;2023-02-20T12:32:29;97723.04;;;8.30;66.36
50302;BME280;36550;50.472;19.744;2023-02-20T12:38:46;97687.87;;;8.32;66.50
50302;BME280;36550;50.472;19.744;2023-02-20T12:44:28;97670.05;;;8.04;66.29
50302;BME280;36550;50.472;19.744;2023-02-20T12:47:32;97663.21;;;7.93;66.31
50302;BME280;36550;50.472;19.744;2023-02-20T12:50:41;97660.83;;;7.91;66.79
50302;BME280;36550;50.472;19.744;2023-02-20T12:54:32;97672.84;;;8.01;67.41
50302;BME280;36550;50.472;19.744;2023-02-20T12:57:17;97630.86;;;8.02;66.99
50302;BME280;36550;50.472;19.744;2023-02-20T13:00:13;97635.63;;;8.00;66.96
50302;BME280;36550;50.472;19.744;2023-02-20T13:03:19;97639.10;;;7.92;67.36
50302;BME280;36550;50.472;19.744;2023-02-20T13:06:06;97647.47;;;7.88;67.68
50302;BME280;36550;50.472;19.744;2023-02-20T13:09:21;97616.28;;;7.86;67.66
50302;BME280;36550;50.472;19.744;2023-02-20T13:12:12;97641.19;;;7.87;67.99
50302;BME280;36550;50.472;19.744;2023-02-20T13:15:19;97623.55;;;7.91;68.12
50302;BME280;36550;50.472;19.744;2023-02-20T13:18:38;97614.20;;;7.96;68.20
50302;BME280;36550;50.472;19.744;2023-02-20T13:21:46;97619.58;;;7.98;68.31
50302;BME280;36550;50.472;19.744;2023-02-20T13:24:38;97609.14;;;8.05;68.66
50302;BME280;36550;50.472;19.744;2023-02-20T13:27:29;97602.11;;;8.04;68.57
50302;BME280;36550;50.472;19.744;2023-02-20T13:30:22;97619.75;;;8.08;68.86
50302;BME280;36550;50.472;19.744;2023-02-20T13:33:29;97602.29;;;8.13;68.98
50302;BME280;36550;50.472;19.744;2023-02-20T13:36:37;97575.00;;;8.12;68.75
50302;BME280;36550;50.472;19.744;2023-02-20T13:39:42;97557.21;;;8.17;69.01
50302;BME280;36550;50.472;19.744;2023-02-20T13:42:33;97540.20;;;8.15;68.85
50302;BME280;36550;50.472;19.744;2023-02-20T13:45:43;97542.81;;;8.13;68.81
50302;BME280;36550;50.472;19.744;2023-02-20T13:48:38;97531.67;;;8.10;68.70
50302;BME280;36550;50.472;19.744;2023-02-20T13:51:40;97518.71;;;8.05;68.94
50302;BME280;36550;50.472;19.744;2023-02-20T13:54:33;97501.20;;;8.00;68.88
50302;BME280;36550;50.472;19.744;2023-02-20T13:57:19;97495.30;;;7.97;69.11
50302;BME280;36550;50.472;19.744;2023-02-20T14:06:12;97461.14;;;7.86;69.33
50302;BME280;36550;50.472;19.744;2023-02-20T14:09:10;97444.59;;;7.83;69.63
50302;BME280;36550;50.472;19.744;2023-02-20T14:12:21;97450.85;;;7.85;69.95
50302;BME280;36550;50.472;19.744;2023-02-20T14:15:25;97420.48;;;7.85;69.79
50302;BME280;36550;50.472;19.744;2023-02-20T14:18:37;97411.39;;;7.82;69.77
50302;BME280;36550;50.472;19.744;2023-02-20T14:21:23;97402.55;;;7.77;69.88
50302;BME280;36550;50.472;19.744;2023-02-20T14:24:28;97382.06;;;7.73;69.76
50302;BME280;36550;50.472;19.744;2023-02-20T14:27:31;97402.64;;;7.70;69.82
50302;BME280;36550;50.472;19.744;2023-02-20T14:30:22;97398.84;;;7.70;69.94
50302;BME280;36550;50.472;19.744;2023-02-20T14:33:22;97392.65;;;7.70;70.21
50302;BME280;36550;50.472;19.744;2023-02-20T14:42:42;97369.11;;;7.63;70.64
50302;BME280;36550;50.472;19.744;2023-02-20T14:45:27;97366.64;;;7.62;70.78
50302;BME280;36550;50.472;19.744;2023-02-20T14:48:40;97361.72;;;7.59;70.97
50302;BME280;36550;50.472;19.744;2023-02-20T14:51:34;97340.16;;;7.57;71.00
50302;BME280;36550;50.472;19.744;2023-02-20T14:54:24;97330.42;;;7.56;71.25
50302;BME280;36550;50.472;19.744;2023-02-20T14:57:14;97325.83;;;7.52;71.34
50302;BME280;36550;50.472;19.744;2023-02-20T15:00:34;97329.10;;;7.49;71.52
50302;BME280;36550;50.472;19.744;2023-02-20T15:03:39;97331.77;;;7.44;71.77
50302;BME280;36550;50.472;19.744;2023-02-20T15:06:24;97311.55;;;7.41;72.03
50302;BME280;36550;50.472;19.744;2023-02-20T15:09:09;97329.70;;;7.38;72.05
50302;BME280;36550;50.472;19.744;2023-02-20T15:11:55;97343.29;;;7.33;72.36
50302;BME280;36550;50.472;19.744;2023-02-20T15:15:11;97354.43;;;7.32;72.50
50302;BME280;36550;50.472;19.744;2023-02-20T15:18:11;97358.41;;;7.32;72.56
50302;BME280;36550;50.472;19.744;2023-02-20T15:20:58;97353.48;;;7.34;72.81
50302;BME280;36550;50.472;19.744;2023-02-20T15:23:45;97367.58;;;7.36;73.12
50302;BME280;36550;50.472;19.744;2023-02-20T15:26:34;97354.99;;;7.39;73.28
50302;BME280;36550;50.472;19.744;2023-02-20T15:29:38;97332.16;;;7.40;73.21
50302;BME280;36550;50.472;19.744;2023-02-20T15:32:24;97328.55;;;7.40;73.10
50302;BME280;36550;50.472;19.744;2023-02-20T15:35:14;97329.96;;;7.40;73.31
50302;BME280;36550;50.472;19.744;2023-02-20T15:38:17;97333.59;;;7.39;73.24
50302;BME280;36550;50.472;19.744;2023-02-20T15:41:04;97335.86;;;7.38;73.36
50302;BME280;36550;50.472;19.744;2023-02-20T15:43:52;97346.92;;;7.37;73.43
50302;BME280;36550;50.472;19.744;2023-02-20T15:46:36;97364.76;;;7.36;73.53
50302;BME280;36550;50.472;19.744;2023-02-20T15:49:21;97365.98;;;7.35;73.67
50302;BME280;36550;50.472;19.744;2023-02-20T15:52:18;97372.12;;;7.34;73.85
50302;BME280;36550;50.472;19.744;2023-02-20T15:55:02;97383.66;;;7.31;73.84
50302;BME280;36550;50.472;19.744;2023-02-20T15:58:15;97378.81;;;7.27;74.09
50302;BME280;36550;50.472;19.744;2023-02-20T16:01:24;97376.94;;;7.25;74.20
50302;BME280;36550;50.472;19.744;2023-02-20T16:04:14;97384.27;;;7.27;74.36
50302;BME280;36550;50.472;19.744;2023-02-20T16:07:41;97390.32;;;7.28;74.35
50302;BME280;36550;50.472;19.744;2023-02-20T16:11:00;97394.23;;;7.32;74.29
50302;BME280;36550;50.472;19.744;2023-02-20T16:14:24;97399.48;;;7.34;74.16
50302;BME280;36550;50.472;19.744;2023-02-20T16:17:30;97401.08;;;7.36;74.11
50302;BME280;36550;50.472;19.744;2023-02-20T16:20:56;97415.05;;;7.40;74.17
50302;BME280;36550;50.472;19.744;2023-02-20T16:24:34;97412.27;;;7.46;73.84
50302;BME280;36550;50.472;19.744;2023-02-20T16:28:00;97410.30;;;7.49;73.76
50302;BME280;36550;50.472;19.744;2023-02-20T16:31:06;97406.01;;;7.51;73.77
50302;BME280;36550;50.472;19.744;2023-02-20T16:34:22;97410.84;;;7.53;73.59
50302;BME280;36550;50.472;19.744;2023-02-20T16:37:11;97404.63;;;7.55;73.32
50302;BME280;36550;50.472;19.744;2023-02-20T16:40:15;97419.83;;;7.58;73.38
50302;BME280;36550;50.472;19.744;2023-02-20T16:43:36;97422.80;;;7.63;72.87
50302;BME280;36550;50.472;19.744;2023-02-20T16:47:00;97413.35;;;7.67;72.98
50302;BME280;36550;50.472;19.744;2023-02-20T16:50:09;97410.41;;;7.70;72.87
50302;BME280;36550;50.472;19.744;2023-02-20T16:53:24;97416.17;;;7.71;72.69
50302;BME280;36550;50.472;19.744;2023-02-20T16:57:02;97429.39;;;7.74;72.60
50302;BME280;36550;50.472;19.744;2023-02-20T16:59:46;97428.36;;;7.77;72.53
50302;BME280;36550;50.472;19.744;2023-02-20T17:02:30;97433.71;;;7.81;72.29
50302;BME280;36550;50.472;19.744;2023-02-20T17:05:14;97426.89;;;7.84;72.38
50302;BME280;36550;50.472;19.744;2023-02-20T17:08:00;97420.50;;;7.86;72.38
50302;BME280;36550;50.472;19.744;2023-02-20T17:10:44;97419.83;;;7.86;71.77
50302;BME280;36550;50.472;19.744;2023-02-20T17:13:43;97420.95;;;7.85;71.67
50302;BME280;36550;50.472;19.744;2023-02-20T17:16:26;97422.23;;;7.84;71.81
50302;BME280;36550;50.472;19.744;2023-02-20T17:19:10;97426.10;;;7.84;72.03
50302;BME280;36550;50.472;19.744;2023-02-20T17:21:54;97420.68;;;7.85;72.14
50302;BME280;36550;50.472;19.744;2023-02-20T17:24:39;97428.77;;;7.87;72.28
50302;BME280;36550;50.472;19.744;2023-02-20T17:27:24;97423.80;;;7.88;72.25
50302;BME280;36550;50.472;19.744;2023-02-20T17:30:08;97426.07;;;7.90;72.32
50302;BME280;36550;50.472;19.744;2023-02-20T17:32:53;97428.27;;;7.85;72.19
50302;BME280;36550;50.472;19.744;2023-02-20T17:35:37;97426.08;;;7.80;72.41
50302;BME280;36550;50.472;19.744;2023-02-20T17:38:21;97433.13;;;7.78;72.41
50302;BME280;36550;50.472;19.744;2023-02-20T17:41:07;97433.18;;;7.77;72.60
50302;BME280;36550;50.472;19.744;2023-02-20T17:43:51;97430.33;;;7.79;72.47
50302;BME280;36550;50.472;19.744;2023-02-20T17:46:35;97431.70;;;7.79;72.65
50302;BME280;36550;50.472;19.744;2023-02-20T17:49:20;97429.94;;;7.80;72.59
50302;BME280;36550;50.472;19.744;2023-02-20T17:52:04;97433.56;;;7.80;72.64
50302;BME280;36550;50.472;19.744;2023-02-20T17:54:49;97422.27;;;7.80;72.50
50302;BME280;36550;50.472;19.744;2023-02-20T17:57:33;97419.98;;;7.82;72.48
50302;BME280;36550;50.472;19.744;2023-02-20T18:00:18;97422.97;;;7.84;72.49
50302;BME280;36550;50.472;19.744;2023-02-20T18:03:03;97421.17;;;7.83;72.49
50302;BME280;36550;50.472;19.744;2023-02-20T18:05:47;97422.95;;;7.83;72.68
50302;BME280;36550;50.472;19.744;2023-02-20T18:08:31;97424.42;;;7.83;72.56
50302;BME280;36550;50.472;19.744;2023-02-20T18:11:16;97424.63;;;7.83;72.78
50302;BME280;36550;50.472;19.744;2023-02-20T18:14:00;97424.88;;;7.83;72.73
50302;BME280;36550;50.472;19.744;2023-02-20T18:16:44;97424.83;;;7.83;72.71